createdAt,value
2022-08-03T00:02:19.342Z,100111.97
2022-08-03T00:04:48.268Z,100117.69
2022-08-03T00:07:15.926Z,100112.47
2022-08-03T00:09:46.278Z,100107.41
2022-08-03T00:12:16.514Z,100107.88
2022-08-03T00:14:44.114Z,100107.91
2022-08-03T00:17:11.615Z,100112.44
2022-08-03T00:19:38.993Z,100110.19
2022-08-03T00:22:06.363Z,100102.28
2022-08-03T00:24:36.396Z,100103.50
2022-08-03T00:27:03.793Z,100103.50
2022-08-03T00:29:31.249Z,100103.28
2022-08-03T00:32:00.220Z,100102.44
2022-08-03T00:34:36.513Z,100096.81
2022-08-03T00:37:16.440Z,100103.47
2022-08-03T00:39:46.169Z,100087.03
2022-08-03T00:42:16.799Z,100092.63
2022-08-03T00:44:46.628Z,100085.31
2022-08-03T00:47:13.990Z,100085.94
2022-08-03T00:49:43.624Z,100103.19
2022-08-03T00:52:12.044Z,100099.50
2022-08-03T00:54:39.827Z,100095.41
2022-08-03T00:57:08.204Z,100080.38
2022-08-03T00:59:37.229Z,100105.00
2022-08-03T01:02:04.661Z,100117.41
2022-08-03T01:04:31.910Z,100102.59
2022-08-03T01:07:13.344Z,100092.91
2022-08-03T01:09:46.212Z,100105.25
2022-08-03T01:12:22.886Z,100097.19
2022-08-03T01:14:58.934Z,100098.28
2022-08-03T01:17:28.311Z,100096.88
2022-08-03T01:20:14.784Z,100095.28
2022-08-03T01:23:11.034Z,100110.47
2022-08-03T01:26:05.832Z,100092.13
2022-08-03T01:28:56.855Z,100104.19
2022-08-03T01:31:29.894Z,100106.84
2022-08-03T01:34:03.383Z,100092.53
2022-08-03T01:36:41.688Z,100088.84
2022-08-03T01:39:12.040Z,100097.13
2022-08-03T01:41:48.071Z,100096.97
2022-08-03T01:44:29.016Z,100095.72
2022-08-03T01:47:03.236Z,100091.31
2022-08-03T01:49:32.606Z,100091.59
2022-08-03T01:52:05.503Z,100079.81
2022-08-03T01:54:41.796Z,100086.75
2022-08-03T01:57:12.534Z,100087.28
2022-08-03T01:59:42.432Z,100085.22
2022-08-03T02:02:15.547Z,100065.41
2022-08-03T02:05:02.311Z,100079.28
2022-08-03T02:07:30.869Z,100075.56
2022-08-03T02:09:58.884Z,100087.41
2022-08-03T02:12:28.514Z,100080.84
2022-08-03T02:14:57.611Z,100089.34
2022-08-03T02:17:39.058Z,100088.44
2022-08-03T02:20:13.379Z,100089.31
2022-08-03T02:22:42.529Z,100095.44
2022-08-03T02:25:12.554Z,100086.50
2022-08-03T02:28:08.628Z,100091.84
2022-08-03T02:30:39.334Z,100087.28
2022-08-03T02:33:12.680Z,100084.59
2022-08-03T02:35:41.478Z,100086.38
2022-08-03T02:38:11.754Z,100090.59
2022-08-03T02:40:41.351Z,100081.69
2022-08-03T02:43:12.464Z,100093.13
2022-08-03T02:45:45.626Z,100088.72
2022-08-03T02:48:17.718Z,100086.53
2022-08-03T02:50:47.244Z,100086.44
2022-08-03T02:53:17.766Z,100090.78
2022-08-03T02:55:50.278Z,100087.66
2022-08-03T02:58:21.617Z,100086.84
2022-08-03T03:00:54.288Z,100083.28
2022-08-03T03:03:22.888Z,100079.16
2022-08-03T03:05:57.566Z,100079.56
2022-08-03T03:08:29.079Z,100089.28
2022-08-03T03:11:01.170Z,100080.72
2022-08-03T03:13:30.677Z,100095.97
2022-08-03T03:16:04.208Z,100084.53
2022-08-03T03:18:35.344Z,100086.69
2022-08-03T03:21:04.817Z,100091.44
2022-08-03T03:23:39.580Z,100091.53
2022-08-03T03:26:08.042Z,100079.19
2022-08-03T03:28:39.240Z,100090.84
2022-08-03T03:31:07.778Z,100088.16
2022-08-03T03:33:35.900Z,100093.53
2022-08-03T03:36:04.970Z,100054.88
2022-08-03T03:38:33.103Z,100082.13
2022-08-03T03:41:00.773Z,100060.84
2022-08-03T03:43:29.649Z,100088.50
2022-08-03T03:45:59.206Z,100095.63
2022-08-03T03:48:26.973Z,100091.78
2022-08-03T03:50:54.712Z,100093.91
2022-08-03T03:53:22.186Z,100091.69
2022-08-03T03:56:01.969Z,100086.75
2022-08-03T03:58:33.087Z,100058.50
2022-08-03T04:01:03.649Z,100037.50
2022-08-03T04:03:31.325Z,100098.16
2022-08-03T04:06:17.588Z,100084.72
2022-08-03T04:09:04.391Z,100092.47
2022-08-03T04:12:01.365Z,100104.59
2022-08-03T04:14:36.606Z,100088.00
2022-08-03T04:17:09.716Z,100097.38
2022-08-03T04:19:44.125Z,100107.00
2022-08-03T04:22:17.031Z,100106.88
2022-08-03T04:24:53.657Z,100105.91
2022-08-03T04:27:29.022Z,100116.84
2022-08-03T04:29:57.874Z,100118.44
2022-08-03T04:32:28.923Z,100115.03
2022-08-03T04:34:56.725Z,100125.34
2022-08-03T04:37:48.134Z,100118.19
2022-08-03T04:40:22.968Z,100123.84
2022-08-03T04:42:51.323Z,100133.38
2022-08-03T04:45:19.819Z,100129.97
2022-08-03T04:47:47.639Z,100126.03
2022-08-03T04:50:21.186Z,100138.41
2022-08-03T04:53:06.075Z,100127.06
2022-08-03T04:55:38.239Z,100127.16
2022-08-03T04:58:06.583Z,100128.16
2022-08-03T05:00:33.988Z,100136.00
2022-08-03T05:03:01.373Z,100131.81
2022-08-03T05:05:34.651Z,100134.75
2022-08-03T05:08:17.161Z,100143.31
2022-08-03T05:10:49.868Z,100137.25
2022-08-03T05:13:17.258Z,100144.47
2022-08-03T05:15:47.377Z,100143.16
2022-08-03T05:18:14.636Z,100142.31
2022-08-03T05:20:42.224Z,100137.94
2022-08-03T05:23:09.503Z,100142.34
2022-08-03T05:25:36.797Z,100141.03
2022-08-03T05:28:05.145Z,100148.88
2022-08-03T05:30:34.060Z,100144.50
2022-08-03T05:33:05.024Z,100147.50
2022-08-03T05:35:57.397Z,100155.47
2022-08-03T05:38:28.572Z,100155.09
2022-08-03T05:41:21.711Z,100157.41
2022-08-03T05:43:50.018Z,100155.66
2022-08-03T05:46:17.509Z,100149.22
2022-08-03T05:48:44.758Z,100152.00
2022-08-03T05:51:12.689Z,100152.47
2022-08-03T05:53:44.232Z,100157.03
2022-08-03T05:56:15.272Z,100163.47
2022-08-03T05:58:45.223Z,100158.63
2022-08-03T06:01:13.052Z,100154.41
2022-08-03T06:03:40.700Z,100153.16
2022-08-03T06:06:08.177Z,100149.50
2022-08-03T06:08:38.716Z,100163.22
2022-08-03T06:11:07.603Z,100169.63
2022-08-03T06:13:42.187Z,100172.81
2022-08-03T06:16:09.575Z,100166.91
2022-08-03T06:18:37.994Z,100171.38
2022-08-03T06:21:14.742Z,100172.06
2022-08-03T06:23:54.121Z,100171.56
2022-08-03T06:26:25.555Z,100166.06
2022-08-03T06:28:54.444Z,100170.31
2022-08-03T06:31:33.412Z,100171.09
2022-08-03T06:34:35.115Z,100176.22
2022-08-03T06:36:53.531Z,100181.81
2022-08-03T06:39:24.558Z,100180.78
2022-08-03T06:41:53.254Z,100176.09
2022-08-03T06:44:20.674Z,100184.53
2022-08-03T06:46:49.034Z,100177.22
2022-08-03T06:49:16.486Z,100181.22
2022-08-03T06:52:05.268Z,100184.75
2022-08-03T06:54:33.270Z,100181.47
2022-08-03T06:57:01.104Z,100174.75
2022-08-03T07:00:10.769Z,100190.44
2022-08-03T07:02:19.763Z,100171.22
2022-08-03T07:04:49.420Z,100183.72
2022-08-03T07:07:17.787Z,100187.63
2022-08-03T07:09:55.684Z,100178.03
2022-08-03T07:12:26.448Z,100180.38
2022-08-03T07:14:59.589Z,100174.97
2022-08-03T07:17:34.984Z,100187.03
2022-08-03T07:20:06.366Z,100189.63
2022-08-03T07:22:37.326Z,100184.16
2022-08-03T07:25:06.302Z,100183.31
2022-08-03T07:27:34.150Z,100183.50
2022-08-03T07:30:02.249Z,100171.22
2022-08-03T07:32:31.837Z,100179.94
2022-08-03T07:35:01.779Z,100183.72
2022-08-03T07:37:30.616Z,100186.53
2022-08-03T07:39:59.281Z,100185.41
2022-08-03T07:42:30.712Z,100184.34
2022-08-03T07:44:59.612Z,100189.72
2022-08-03T07:47:34.841Z,100190.00
2022-08-03T07:50:04.515Z,100192.75
2022-08-03T07:52:48.707Z,100190.38
2022-08-03T07:55:21.747Z,100190.84
2022-08-03T07:58:21.993Z,100187.69
2022-08-03T08:00:53.474Z,100176.00
2022-08-03T08:03:22.159Z,100183.06
2022-08-03T08:05:51.472Z,100187.25
2022-08-03T08:08:21.905Z,100189.31
2022-08-03T08:10:58.341Z,100182.53
2022-08-03T08:13:26.221Z,100183.16
2022-08-03T08:15:53.727Z,100196.22
2022-08-03T08:18:24.373Z,100188.31
2022-08-03T08:20:52.552Z,100186.03
2022-08-03T08:23:42.261Z,100187.75
2022-08-03T08:26:10.728Z,100172.47
2022-08-03T08:28:38.474Z,100189.69
2022-08-03T08:31:05.972Z,100191.03
2022-08-03T08:34:02.532Z,100196.38
2022-08-03T08:36:22.402Z,100190.81
2022-08-03T08:38:49.767Z,100200.47
2022-08-03T08:41:17.594Z,100186.75
2022-08-03T08:43:45.067Z,100183.66
2022-08-03T08:46:23.112Z,100186.91
2022-08-03T08:48:52.255Z,100186.25
2022-08-03T08:51:21.887Z,100188.78
2022-08-03T08:53:53.299Z,100176.22
2022-08-03T08:56:25.714Z,100186.00
2022-08-03T08:58:58.280Z,100172.66
2022-08-03T09:01:26.910Z,100166.47
2022-08-03T09:03:58.858Z,100177.16
2022-08-03T09:06:26.254Z,100178.88
2022-08-03T09:08:53.698Z,100145.59
2022-08-03T09:11:54.498Z,100179.59
2022-08-03T09:14:36.961Z,100168.59
2022-08-03T09:17:04.726Z,100166.72
2022-08-03T09:19:42.044Z,100174.97
2022-08-03T09:22:30.265Z,100176.19
2022-08-03T09:25:22.889Z,100169.47
2022-08-03T09:27:48.011Z,100158.03
2022-08-03T09:30:32.512Z,100165.88
2022-08-03T09:33:11.817Z,100167.13
2022-08-03T09:35:57.768Z,100157.50
2022-08-03T09:38:28.791Z,100155.75
2022-08-03T09:40:59.963Z,100159.81
2022-08-03T09:43:46.754Z,100146.97
2022-08-03T09:46:13.955Z,100154.88
2022-08-03T09:48:41.632Z,100161.50
2022-08-03T09:51:14.278Z,100164.13
2022-08-03T09:54:00.461Z,100154.56
2022-08-03T09:56:47.604Z,100154.50
2022-08-03T09:59:30.836Z,100153.44
2022-08-03T10:02:00.260Z,100149.13
2022-08-03T10:04:29.118Z,100149.69
2022-08-03T10:07:10.848Z,100143.84
2022-08-03T10:09:38.656Z,100135.94
2022-08-03T10:12:14.066Z,100143.63
2022-08-03T10:14:48.259Z,100134.06
2022-08-03T10:17:16.027Z,100139.16
2022-08-03T10:19:43.821Z,100140.13
2022-08-03T10:22:15.838Z,100135.47
2022-08-03T10:24:53.355Z,100124.13
2022-08-03T10:27:23.608Z,100124.09
2022-08-03T10:29:57.222Z,100129.63
2022-08-03T10:33:02.382Z,100125.69
2022-08-03T10:35:30.545Z,100119.13
2022-08-03T10:38:08.456Z,100113.41
2022-08-03T10:40:58.672Z,100118.88
2022-08-03T10:43:37.740Z,100113.31
2022-08-03T10:46:09.001Z,100110.28
2022-08-03T10:48:37.271Z,100103.88
2022-08-03T10:51:05.266Z,100105.50
2022-08-03T10:53:38.362Z,100102.69
2022-08-03T10:56:43.775Z,100102.50
2022-08-03T10:59:14.726Z,100099.09
2022-08-03T11:02:00.121Z,100087.66
2022-08-03T11:04:30.498Z,100093.03
2022-08-03T11:07:17.030Z,100093.69
2022-08-03T11:09:50.745Z,100085.06
2022-08-03T11:12:29.878Z,100081.94
2022-08-03T11:15:01.731Z,100090.56
2022-08-03T11:17:29.486Z,100090.50
2022-08-03T11:19:58.567Z,100086.91
2022-08-03T11:22:28.510Z,100079.47
2022-08-03T11:25:00.051Z,100079.78
2022-08-03T11:27:33.436Z,100078.16
2022-08-03T11:30:09.673Z,100081.59
2022-08-03T11:32:48.431Z,100075.78
2022-08-03T11:35:31.112Z,100063.91
2022-08-03T11:38:04.622Z,100064.16
2022-08-03T11:40:35.523Z,100063.75
2022-08-03T11:43:04.948Z,100058.34
2022-08-03T11:45:32.467Z,100052.56
2022-08-03T11:48:15.239Z,100046.19
2022-08-03T11:50:45.797Z,100013.00
2022-08-03T11:53:19.175Z,100041.38
2022-08-03T11:55:51.318Z,100051.00
2022-08-03T11:59:15.398Z,100049.25
2022-08-03T12:01:08.994Z,100044.47
2022-08-03T12:03:36.602Z,100048.94
2022-08-03T12:06:10.666Z,100043.94
2022-08-03T12:08:38.472Z,100038.22
2022-08-03T12:11:09.322Z,100040.66
2022-08-03T12:14:44.706Z,100043.59
2022-08-03T12:16:47.162Z,100036.38
2022-08-03T12:19:14.601Z,100032.25
2022-08-03T12:21:57.067Z,100043.59
2022-08-03T12:24:25.018Z,100041.38
2022-08-03T12:26:58.794Z,100043.00
2022-08-03T12:29:30.053Z,100043.06
2022-08-03T12:31:57.798Z,100035.03
2022-08-03T12:34:47.405Z,100037.38
2022-08-03T12:37:22.541Z,100029.22
2022-08-03T12:40:05.004Z,100026.94
2022-08-03T12:42:35.854Z,100029.22
2022-08-03T12:45:23.996Z,100032.53
2022-08-03T12:48:02.317Z,100027.50
2022-08-03T12:50:35.087Z,100026.13
2022-08-03T12:53:08.846Z,100016.59
2022-08-03T12:55:56.597Z,100026.44
2022-08-03T12:58:36.314Z,100031.06
2022-08-03T13:01:09.688Z,100027.41
2022-08-03T13:03:50.414Z,100028.53
2022-08-03T13:06:27.546Z,100017.25
2022-08-03T13:09:08.865Z,100022.22
2022-08-03T13:11:57.720Z,100024.81
2022-08-03T13:14:23.997Z,100027.53
2022-08-03T13:16:51.751Z,100024.47
2022-08-03T13:19:19.130Z,100011.44
2022-08-03T13:21:53.864Z,100008.31
2022-08-03T13:24:33.237Z,100012.50
2022-08-03T13:28:01.092Z,99996.44
2022-08-03T13:29:51.057Z,100021.50
2022-08-03T13:32:18.526Z,100020.09
2022-08-03T13:34:46.227Z,100013.94
2022-08-03T13:37:14.365Z,100015.56
2022-08-03T13:39:57.297Z,100012.50
2022-08-03T13:42:26.475Z,100013.84
2022-08-03T13:44:53.938Z,100026.16
2022-08-03T13:47:21.690Z,100022.69
2022-08-03T13:49:59.803Z,100025.75
2022-08-03T13:52:36.790Z,100014.06
2022-08-03T13:55:07.845Z,100024.28
2022-08-03T13:58:04.378Z,100020.78
2022-08-03T14:00:28.620Z,100031.09
2022-08-03T14:03:12.629Z,100037.44
2022-08-03T14:05:42.299Z,100041.28
2022-08-03T14:08:10.044Z,100036.47
2022-08-03T14:10:41.707Z,100033.91
2022-08-03T14:13:10.941Z,100036.31
2022-08-03T14:15:38.739Z,100043.13
2022-08-03T14:18:12.875Z,100040.44
2022-08-03T14:20:49.057Z,100049.28
2022-08-03T14:23:19.108Z,100046.91
2022-08-03T14:25:51.672Z,100057.28
2022-08-03T14:28:23.227Z,100056.97
2022-08-03T14:30:52.376Z,100059.94
2022-08-03T14:33:20.437Z,100074.63
2022-08-03T14:35:48.765Z,100067.63
2022-08-03T14:38:17.124Z,100044.38
2022-08-03T14:40:45.043Z,100067.97
2022-08-03T14:43:12.955Z,100074.66
2022-08-03T14:45:45.650Z,100062.47
2022-08-03T14:50:10.480Z,100072.78
2022-08-03T14:51:02.116Z,100077.84
2022-08-03T14:53:30.381Z,100064.13
2022-08-03T14:55:58.830Z,100072.53
2022-08-03T14:58:26.964Z,100071.75
2022-08-03T15:00:55.718Z,100077.28
2022-08-03T15:03:25.134Z,100073.47
2022-08-03T15:05:57.411Z,100079.63
2022-08-03T15:08:26.041Z,100081.75
2022-08-03T15:10:54.857Z,100061.09
2022-08-03T15:13:22.577Z,100078.75
2022-08-03T15:15:50.283Z,100056.19
2022-08-03T15:18:18.057Z,100083.72
2022-08-03T15:20:47.002Z,100079.91
2022-08-03T15:23:18.362Z,100090.47
2022-08-03T15:26:31.583Z,100082.31
2022-08-03T15:28:34.102Z,100086.19
2022-08-03T15:31:05.748Z,100089.47
2022-08-03T15:33:33.338Z,100079.41
2022-08-03T15:36:03.007Z,100071.72
2022-08-03T15:38:30.460Z,100065.34
2022-08-03T15:40:59.319Z,100082.19
2022-08-03T15:43:26.763Z,100081.38
2022-08-03T15:46:26.603Z,100085.44
2022-08-03T15:48:41.994Z,100080.81
2022-08-03T15:51:09.757Z,100089.63
2022-08-03T15:53:38.109Z,100090.59
2022-08-03T15:56:11.421Z,100094.44
2022-08-03T15:59:09.201Z,100088.25
2022-08-03T16:01:33.125Z,100063.50
2022-08-03T16:04:00.566Z,100099.56
2022-08-03T16:06:34.634Z,100108.75
2022-08-03T16:09:23.949Z,100103.78
2022-08-03T16:11:54.805Z,100104.84
2022-08-03T16:14:34.243Z,100091.28
2022-08-03T16:17:04.558Z,100096.31
2022-08-03T16:19:31.939Z,100088.72
2022-08-03T16:21:59.883Z,100090.50
2022-08-03T16:24:28.472Z,100079.59
2022-08-03T16:26:56.698Z,100085.38
2022-08-03T16:29:24.314Z,100085.97
2022-08-03T16:31:52.700Z,100094.28
2022-08-03T16:34:21.498Z,100087.09
2022-08-03T16:36:48.967Z,100092.91
2022-08-03T16:39:16.505Z,100092.47
2022-08-03T16:41:53.872Z,100092.75
2022-08-03T16:44:31.653Z,100076.63
2022-08-03T16:47:00.734Z,100091.84
2022-08-03T16:49:54.298Z,100098.22
2022-08-03T16:52:17.857Z,100100.25
2022-08-03T16:54:53.078Z,100100.97
2022-08-03T16:57:56.116Z,100102.31
2022-08-03T17:00:34.134Z,100102.06
2022-08-03T17:03:04.505Z,100102.91
2022-08-03T17:05:43.865Z,100101.13
2022-08-03T17:08:26.359Z,100111.53
2022-08-03T17:10:55.867Z,100117.88
2022-08-03T17:13:38.833Z,100119.50
2022-08-03T17:16:15.420Z,100120.25
2022-08-03T17:18:49.650Z,100120.75
2022-08-03T17:21:20.409Z,100128.78
2022-08-03T17:24:18.665Z,100124.88
2022-08-03T17:26:51.177Z,100133.13
2022-08-03T17:29:23.210Z,100132.28
2022-08-03T17:31:53.189Z,100134.56
2022-08-03T17:34:26.367Z,100129.59
2022-08-03T17:37:04.188Z,100126.94
2022-08-03T17:39:58.719Z,100117.16
2022-08-03T17:42:30.520Z,100136.66
2022-08-03T17:45:03.972Z,100139.94
2022-08-03T17:47:42.073Z,100142.31
2022-08-03T17:50:25.003Z,100143.53
2022-08-03T17:53:23.987Z,100145.00
2022-08-03T17:56:40.409Z,100143.78
2022-08-03T17:59:52.401Z,100152.56
2022-08-03T18:02:52.401Z,100146.38
2022-08-03T18:05:22.190Z,100151.56
2022-08-03T18:07:59.329Z,100139.34
2022-08-03T18:10:34.553Z,100153.94
2022-08-03T18:13:15.989Z,100117.31
2022-08-03T18:15:53.495Z,100149.97
2022-08-03T18:18:32.689Z,100118.31
2022-08-03T18:21:09.319Z,100158.53
2022-08-03T18:23:45.248Z,100170.34
2022-08-03T18:26:18.338Z,100171.06
2022-08-03T18:28:45.845Z,100175.00
2022-08-03T18:31:59.592Z,100170.94
2022-08-03T18:34:17.379Z,100180.34
2022-08-03T18:36:52.659Z,100179.13
2022-08-03T18:39:23.552Z,100174.63
2022-08-03T18:41:52.402Z,100180.19
2022-08-03T18:44:53.510Z,100178.13
2022-08-03T18:47:50.547Z,100192.22
2022-08-03T18:50:53.811Z,100196.09
2022-08-03T18:54:03.027Z,100193.56
2022-08-03T18:56:47.801Z,100193.16
2022-08-03T18:59:30.267Z,100177.81
2022-08-03T19:02:05.888Z,100186.31
2022-08-03T19:04:45.595Z,100196.06
2022-08-03T19:07:23.439Z,100194.13
2022-08-03T19:09:58.764Z,100203.22
2022-08-03T19:12:30.916Z,100193.50
2022-08-03T19:15:12.596Z,100175.53
2022-08-03T19:17:50.154Z,100205.66
2022-08-03T19:20:31.289Z,100196.72
2022-08-03T19:23:00.000Z,100179.09
2022-08-03T19:25:34.732Z,100192.72
2022-08-03T19:28:06.120Z,100198.03
2022-08-03T19:30:38.583Z,100199.91
2022-08-03T19:33:09.874Z,100209.94
2022-08-03T19:35:54.920Z,100204.06
2022-08-03T19:38:29.024Z,100188.78
2022-08-03T19:41:03.200Z,100203.88
2022-08-03T19:43:53.139Z,100200.13
2022-08-03T19:46:31.165Z,100194.38
2022-08-03T19:49:14.817Z,100196.94
2022-08-03T19:52:02.231Z,100200.63
2022-08-03T19:54:53.305Z,100207.25
2022-08-03T19:57:24.491Z,100194.59
2022-08-03T19:59:53.887Z,100203.19
2022-08-03T20:02:25.725Z,100204.44
2022-08-03T20:04:57.786Z,100197.22
2022-08-03T20:07:29.481Z,100201.50
2022-08-03T20:10:01.587Z,100197.25
2022-08-03T20:12:33.231Z,100201.34
2022-08-03T20:15:06.851Z,100188.03
2022-08-03T20:17:56.106Z,100193.34
2022-08-03T20:20:24.469Z,100177.72
2022-08-03T20:22:57.727Z,100206.22
2022-08-03T20:25:38.280Z,100203.69
2022-08-03T20:28:15.242Z,100202.28
2022-08-03T20:30:47.383Z,100209.97
2022-08-03T20:33:18.860Z,100217.03
2022-08-03T20:35:49.396Z,100212.31
2022-08-03T20:38:19.018Z,100210.25
2022-08-03T20:40:47.679Z,100216.63
2022-08-03T20:43:16.609Z,100200.47
2022-08-03T20:46:01.244Z,100199.16
2022-08-03T20:48:36.433Z,100207.88
2022-08-03T20:51:19.610Z,100204.56
2022-08-03T20:53:59.657Z,100203.69
2022-08-03T20:56:32.517Z,100195.63
2022-08-03T20:59:04.005Z,100204.91
2022-08-03T21:01:36.205Z,100196.59
2022-08-03T21:04:07.176Z,100203.75
2022-08-03T21:06:53.145Z,100203.34
2022-08-03T21:09:33.562Z,100208.41
2022-08-03T21:12:13.176Z,100209.31
2022-08-03T21:14:52.324Z,100214.31
2022-08-03T21:17:38.414Z,100220.78
2022-08-03T21:20:10.894Z,100213.78
2022-08-03T21:22:41.749Z,100212.03
2022-08-03T21:25:10.702Z,100225.47
2022-08-03T21:27:42.013Z,100225.22
2022-08-03T21:30:11.432Z,100221.09
2022-08-03T21:32:40.733Z,100227.97
2022-08-03T21:35:12.966Z,100223.31
2022-08-03T21:37:42.589Z,100219.09
2022-08-03T21:40:12.463Z,100225.25
2022-08-03T21:42:44.469Z,100230.41
2022-08-03T21:45:17.345Z,100222.09
2022-08-03T21:47:47.022Z,100226.53
2022-08-03T21:50:14.736Z,100190.44
2022-08-03T21:52:47.369Z,100227.19
2022-08-03T21:55:20.300Z,100225.56
2022-08-03T21:57:53.176Z,100230.69
2022-08-03T22:00:23.419Z,100226.41
2022-08-03T22:02:56.035Z,100218.31
2022-08-03T22:05:42.512Z,100224.81
2022-08-03T22:08:14.253Z,100218.75
2022-08-03T22:10:44.852Z,100229.06
2022-08-03T22:13:14.418Z,100227.41
2022-08-03T22:15:42.061Z,100226.69
2022-08-03T22:18:10.133Z,100223.25
2022-08-03T22:20:37.821Z,100224.16
2022-08-03T22:23:06.967Z,100224.66
2022-08-03T22:25:36.801Z,100232.03
2022-08-03T22:28:12.877Z,100228.72
2022-08-03T22:30:41.852Z,100226.78
2022-08-03T22:33:12.983Z,100227.06
2022-08-03T22:35:44.199Z,100220.13
2022-08-03T22:38:17.274Z,100214.59
2022-08-03T22:40:45.332Z,100215.16
2022-08-03T22:43:12.623Z,100208.78
2022-08-03T22:46:09.397Z,100222.78
2022-08-03T22:48:29.370Z,100225.03
2022-08-03T22:51:00.913Z,100229.41
2022-08-03T22:53:28.898Z,100226.09
2022-08-03T22:55:56.440Z,100231.53
2022-08-03T22:58:23.978Z,100224.19
2022-08-03T23:01:07.451Z,100227.13
2022-08-03T23:03:58.653Z,100223.72
2022-08-03T23:06:27.421Z,100224.28
2022-08-03T23:08:55.780Z,100201.78
2022-08-03T23:11:25.009Z,100225.00
2022-08-03T23:13:54.714Z,100219.25
2022-08-03T23:16:28.875Z,100225.72
2022-08-03T23:19:16.583Z,100221.88
2022-08-03T23:21:51.271Z,100218.72
2022-08-03T23:24:30.239Z,100219.66
2022-08-03T23:26:59.212Z,100225.25
2022-08-03T23:29:29.543Z,100215.75
2022-08-03T23:31:57.837Z,100216.97
2022-08-03T23:34:44.626Z,100235.88
2022-08-03T23:37:15.022Z,100196.03
2022-08-03T23:39:47.349Z,100203.44
2022-08-03T23:42:18.309Z,100225.81
2022-08-03T23:44:46.598Z,100227.09
2022-08-03T23:47:14.494Z,100220.28
2022-08-03T23:49:41.987Z,100207.88
2022-08-03T23:52:53.204Z,100203.78
2022-08-03T23:55:21.511Z,100219.81
2022-08-03T23:58:17.159Z,100205.63
